createdAt,value
2022-08-05T00:01:48.570Z,25.96
2022-08-05T00:04:18.273Z,26.01
2022-08-05T00:06:47.024Z,25.95
2022-08-05T00:09:15.711Z,26.03
2022-08-05T00:11:48.457Z,25.96
2022-08-05T00:14:18.293Z,25.98
2022-08-05T00:16:52.537Z,26.01
2022-08-05T00:19:25.067Z,25.95
2022-08-05T00:22:02.104Z,25.80
2022-08-05T00:24:30.757Z,25.76
2022-08-05T00:26:59.852Z,25.90
2022-08-05T00:29:37.783Z,25.75
2022-08-05T00:32:12.341Z,25.72
2022-08-05T00:35:05.436Z,25.43
2022-08-05T00:37:50.987Z,25.45
2022-08-05T00:40:28.230Z,25.54
2022-08-05T00:43:02.091Z,25.41
2022-08-05T00:45:42.728Z,25.39
2022-08-05T00:48:14.221Z,25.43
2022-08-05T00:50:46.060Z,25.40
2022-08-05T00:53:59.858Z,25.26
2022-08-05T00:56:05.685Z,25.17
2022-08-05T00:58:36.186Z,25.21
2022-08-05T01:01:08.501Z,25.08
2022-08-05T01:03:38.575Z,24.92
2022-08-05T01:06:14.248Z,24.85
2022-08-05T01:08:44.497Z,24.82
2022-08-05T01:11:22.581Z,25.11
2022-08-05T01:14:18.186Z,25.36
2022-08-05T01:17:15.392Z,25.38
2022-08-05T01:20:01.853Z,25.32
2022-08-05T01:23:14.527Z,25.04
2022-08-05T01:26:06.058Z,24.88
2022-08-05T01:28:44.160Z,24.94
2022-08-05T01:31:29.990Z,24.73
2022-08-05T01:34:20.712Z,25.07
2022-08-05T01:37:24.686Z,25.10
2022-08-05T01:39:58.686Z,25.10
2022-08-05T01:42:29.448Z,25.17
2022-08-05T01:45:02.362Z,24.89
2022-08-05T01:47:39.527Z,24.94
2022-08-05T01:50:29.754Z,24.96
2022-08-05T01:53:02.034Z,24.96
2022-08-05T01:55:36.747Z,25.10
2022-08-05T01:58:15.749Z,24.99
2022-08-05T02:00:47.627Z,25.06
2022-08-05T02:03:32.095Z,25.03
2022-08-05T02:06:33.436Z,25.02
2022-08-05T02:08:59.001Z,25.01
2022-08-05T02:11:33.851Z,25.02
2022-08-05T02:14:22.489Z,25.08
2022-08-05T02:17:03.159Z,25.01
2022-08-05T02:19:47.015Z,25.05
2022-08-05T02:22:25.668Z,25.00
2022-08-05T02:25:19.965Z,25.11
2022-08-05T02:27:58.431Z,25.02
2022-08-05T02:30:51.873Z,25.22
2022-08-05T02:33:38.114Z,25.10
2022-08-05T02:36:20.275Z,24.87
2022-08-05T02:38:53.601Z,24.65
2022-08-05T02:41:28.406Z,24.60
2022-08-05T02:44:13.101Z,24.58
2022-08-05T02:46:58.311Z,24.36
2022-08-05T02:49:40.462Z,24.48
2022-08-05T02:52:29.543Z,24.50
2022-08-05T02:55:17.556Z,24.36
2022-08-05T02:58:19.708Z,24.40
2022-08-05T03:00:48.971Z,24.25
2022-08-05T03:04:03.430Z,24.31
2022-08-05T03:06:53.575Z,24.24
2022-08-05T03:09:17.838Z,24.18
2022-08-05T03:11:57.958Z,24.18
2022-08-05T03:14:26.258Z,23.95
2022-08-05T03:16:53.935Z,23.75
2022-08-05T03:19:34.108Z,23.48
2022-08-05T03:22:04.849Z,23.40
2022-08-05T03:24:51.049Z,23.41
2022-08-05T03:27:21.606Z,23.68
2022-08-05T03:30:07.680Z,23.83
2022-08-05T03:32:39.278Z,23.64
2022-08-05T03:35:09.645Z,23.97
2022-08-05T03:37:46.762Z,23.94
2022-08-05T03:40:24.391Z,23.80
2022-08-05T03:43:58.566Z,24.01
2022-08-05T03:45:58.239Z,24.10
2022-08-05T03:48:30.311Z,24.21
2022-08-05T03:52:38.911Z,24.27
2022-08-05T03:55:51.581Z,23.97
2022-08-05T03:57:41.270Z,23.70
2022-08-05T04:00:07.112Z,23.61
2022-08-05T04:02:57.777Z,23.90
2022-08-05T04:05:40.118Z,24.12
2022-08-05T04:08:29.628Z,23.93
2022-08-05T04:11:02.749Z,23.87
2022-08-05T04:13:50.564Z,24.16
2022-08-05T04:16:25.079Z,24.32
2022-08-05T04:18:57.767Z,24.31
2022-08-05T04:22:10.247Z,24.42
2022-08-05T04:24:19.564Z,24.44
2022-08-05T04:26:51.225Z,24.50
2022-08-05T04:29:20.017Z,24.52
2022-08-05T04:31:49.881Z,24.53
2022-08-05T04:34:32.850Z,24.39
2022-08-05T04:37:03.341Z,24.28
2022-08-05T04:39:35.437Z,24.18
2022-08-05T04:42:03.916Z,24.21
2022-08-05T04:44:35.980Z,24.00
2022-08-05T04:47:08.924Z,24.01
2022-08-05T04:50:01.712Z,24.01
2022-08-05T04:52:28.454Z,24.02
2022-08-05T04:54:57.457Z,24.08
2022-08-05T04:57:28.510Z,24.42
2022-08-05T04:59:58.604Z,24.69
2022-08-05T05:02:37.655Z,24.73
2022-08-05T05:05:16.652Z,24.64
2022-08-05T05:08:00.829Z,24.92
2022-08-05T05:10:33.581Z,25.04
2022-08-05T05:13:03.965Z,25.13
2022-08-05T05:15:56.495Z,25.37
2022-08-05T05:18:31.123Z,25.76
2022-08-05T05:21:03.783Z,26.23
2022-08-05T05:24:03.028Z,26.31
2022-08-05T05:26:19.364Z,26.54
2022-08-05T05:28:46.601Z,27.01
2022-08-05T05:31:14.142Z,27.24
2022-08-05T05:34:01.614Z,27.61
2022-08-05T05:36:29.722Z,27.83
2022-08-05T05:38:58.953Z,28.06
2022-08-05T05:41:26.616Z,28.39
2022-08-05T05:44:35.608Z,28.69
2022-08-05T05:46:57.892Z,28.97
2022-08-05T05:49:26.329Z,29.33
2022-08-05T05:51:55.017Z,29.61
2022-08-05T05:54:22.790Z,29.98
2022-08-05T05:57:13.567Z,30.03
2022-08-05T05:59:47.150Z,30.05
2022-08-05T06:02:16.664Z,30.35
2022-08-05T06:04:49.256Z,30.30
2022-08-05T06:07:16.838Z,30.01
2022-08-05T06:10:01.639Z,29.84
2022-08-05T06:12:35.154Z,30.01
2022-08-05T06:15:16.421Z,29.93
2022-08-05T06:17:54.381Z,29.16
2022-08-05T06:20:23.402Z,28.96
2022-08-05T06:22:51.440Z,29.02
2022-08-05T06:25:59.695Z,29.52
2022-08-05T06:28:12.069Z,29.33
2022-08-05T06:30:48.011Z,28.96
2022-08-05T06:33:19.449Z,28.82
2022-08-05T06:36:07.767Z,29.50
2022-08-05T06:38:37.342Z,30.00
2022-08-05T06:41:08.228Z,30.39
2022-08-05T06:43:57.412Z,30.35
2022-08-05T06:46:29.759Z,30.33
2022-08-05T06:48:59.726Z,30.80
2022-08-05T06:51:31.078Z,31.30
2022-08-05T06:54:01.741Z,31.37
2022-08-05T06:56:34.462Z,31.65
2022-08-05T06:59:09.730Z,31.93
2022-08-05T07:01:42.666Z,32.51
2022-08-05T07:04:14.122Z,32.63
2022-08-05T07:06:41.978Z,32.87
2022-08-05T07:09:09.276Z,33.15
2022-08-05T07:11:39.702Z,32.91
2022-08-05T07:14:29.795Z,33.02
2022-08-05T07:18:01.316Z,33.49
2022-08-05T07:22:42.183Z,33.85
2022-08-05T07:25:22.869Z,34.14
2022-08-05T07:28:04.091Z,34.31
2022-08-05T07:33:37.019Z,34.19
2022-08-05T07:36:21.150Z,33.92
2022-08-05T07:38:49.450Z,33.98
2022-08-05T07:42:12.775Z,34.23
2022-08-05T07:44:18.365Z,34.34
2022-08-05T07:46:49.332Z,34.66
2022-08-05T07:49:43.595Z,34.46
2022-08-05T07:52:23.948Z,34.66
2022-08-05T07:54:53.674Z,35.14
2022-08-05T07:57:41.620Z,35.35
2022-08-05T08:00:14.530Z,35.23
2022-08-05T08:03:14.010Z,35.41
2022-08-05T08:05:29.818Z,35.40
2022-08-05T08:07:59.036Z,35.15
2022-08-05T08:10:28.150Z,35.80
2022-08-05T08:12:56.031Z,36.11
2022-08-05T08:15:37.447Z,36.49
2022-08-05T08:18:14.700Z,36.42
2022-08-05T08:21:02.342Z,36.48
2022-08-05T08:24:03.054Z,36.04
2022-08-05T08:26:26.691Z,36.48
2022-08-05T08:29:24.564Z,36.35
2022-08-05T08:31:47.591Z,36.34
2022-08-05T08:34:18.677Z,36.53
2022-08-05T08:37:01.744Z,36.44
2022-08-05T08:39:37.534Z,36.40
2022-08-05T08:42:15.244Z,36.66
2022-08-05T08:45:17.858Z,36.70
2022-08-05T08:48:06.804Z,36.95
2022-08-05T08:51:04.084Z,37.03
2022-08-05T08:53:27.497Z,36.64
2022-08-05T08:56:04.116Z,37.03
2022-08-05T08:58:43.857Z,37.24
2022-08-05T09:01:17.911Z,37.16
2022-08-05T09:03:54.230Z,37.28
2022-08-05T09:06:29.008Z,37.13
2022-08-05T09:09:02.152Z,37.14
2022-08-05T09:11:51.346Z,37.49
2022-08-05T09:14:58.633Z,37.40
2022-08-05T09:17:42.768Z,37.25
2022-08-05T09:20:02.503Z,37.20
2022-08-05T09:23:18.912Z,37.07
2022-08-05T09:26:15.861Z,37.33
2022-08-05T09:28:48.781Z,37.78
2022-08-05T09:31:22.777Z,37.56
2022-08-05T09:34:10.062Z,37.27
2022-08-05T09:36:54.004Z,37.79
2022-08-05T09:39:41.485Z,38.04
2022-08-05T09:42:23.232Z,38.53
2022-08-05T09:44:55.999Z,38.22
2022-08-05T09:47:48.019Z,38.10
2022-08-05T09:50:38.945Z,38.03
2022-08-05T09:53:12.033Z,37.99
2022-08-05T09:56:04.522Z,37.85
2022-08-05T09:58:32.367Z,37.50
2022-08-05T10:01:14.600Z,37.39
2022-08-05T10:04:03.634Z,36.62
2022-08-05T10:06:32.726Z,36.36
2022-08-05T10:09:27.428Z,36.86
2022-08-05T10:12:30.722Z,37.11
2022-08-05T10:15:17.147Z,37.27
2022-08-05T10:18:02.909Z,37.16
2022-08-05T10:20:33.544Z,37.81
2022-08-05T10:23:02.153Z,38.09
2022-08-05T10:25:31.177Z,38.73
2022-08-05T10:28:12.961Z,38.15
2022-08-05T10:32:54.222Z,38.28
2022-08-05T10:33:36.021Z,38.55
2022-08-05T10:36:05.365Z,38.71
2022-08-05T10:38:35.284Z,39.06
2022-08-05T10:41:13.998Z,39.14
2022-08-05T10:43:52.369Z,39.14
2022-08-05T10:46:24.143Z,39.05
2022-08-05T10:49:09.882Z,38.72
2022-08-05T10:51:57.751Z,38.28
2022-08-05T10:54:56.168Z,38.96
2022-08-05T10:57:30.825Z,39.27
2022-08-05T11:00:19.269Z,39.11
2022-08-05T11:03:24.981Z,39.14
2022-08-05T11:06:31.087Z,39.12
2022-08-05T11:09:17.196Z,38.93
2022-08-05T11:11:53.873Z,39.19
2022-08-05T11:15:11.481Z,38.80
2022-08-05T11:17:58.676Z,39.41
2022-08-05T11:20:39.135Z,39.09
2022-08-05T11:23:33.020Z,39.27
2022-08-05T11:26:09.124Z,39.41
2022-08-05T11:28:39.872Z,39.40
2022-08-05T11:31:07.686Z,38.99
2022-08-05T11:33:52.630Z,38.89
2022-08-05T11:36:42.961Z,38.58
2022-08-05T11:39:14.876Z,37.90
2022-08-05T11:42:01.477Z,37.40
2022-08-05T11:44:40.697Z,37.82
2022-08-05T11:47:48.235Z,38.01
2022-08-05T11:50:14.231Z,38.13
2022-08-05T11:52:44.143Z,38.37
2022-08-05T11:55:16.372Z,37.96
2022-08-05T11:58:09.941Z,38.12
2022-08-05T12:00:38.043Z,38.68
2022-08-05T12:03:28.365Z,38.35
2022-08-05T12:06:06.636Z,38.81
2022-08-05T12:08:48.027Z,38.72
2022-08-05T12:11:39.946Z,38.48
2022-08-05T12:14:10.053Z,37.97
2022-08-05T12:16:40.630Z,37.85
2022-08-05T12:20:25.896Z,38.23
2022-08-05T12:22:02.717Z,37.85
2022-08-05T12:24:30.517Z,36.92
2022-08-05T12:26:58.175Z,37.06
2022-08-05T12:29:27.385Z,37.18
2022-08-05T12:31:56.161Z,37.20
2022-08-05T12:34:28.567Z,37.94
2022-08-05T12:36:58.275Z,37.89
2022-08-05T12:39:27.919Z,37.96
2022-08-05T12:42:02.881Z,37.73
2022-08-05T12:44:33.717Z,38.24
2022-08-05T12:47:02.819Z,38.03
2022-08-05T12:50:03.315Z,38.25
2022-08-05T12:52:41.845Z,38.16
2022-08-05T12:55:25.893Z,38.07
2022-08-05T12:58:50.285Z,38.50
2022-08-05T13:02:01.239Z,38.78
2022-08-05T13:03:41.587Z,38.85
2022-08-05T13:06:18.296Z,38.86
2022-08-05T13:09:09.236Z,38.91
2022-08-05T13:12:03.134Z,38.46
2022-08-05T13:14:36.938Z,38.76
2022-08-05T13:17:11.510Z,37.50
2022-08-05T13:19:52.367Z,37.64
2022-08-05T13:22:28.275Z,37.98
2022-08-05T13:25:08.016Z,37.85
2022-08-05T13:27:50.380Z,37.53
2022-08-05T13:30:34.629Z,37.08
2022-08-05T13:33:04.548Z,37.52
2022-08-05T13:35:47.555Z,38.01
2022-08-05T13:38:30.763Z,37.65
2022-08-05T13:41:02.772Z,38.14
2022-08-05T13:43:43.507Z,38.54
2022-08-05T13:46:14.882Z,38.06
2022-08-05T13:48:58.418Z,37.79
2022-08-05T13:51:40.427Z,38.01
2022-08-05T13:54:12.742Z,37.47
2022-08-05T13:56:44.937Z,37.75
2022-08-05T13:59:23.733Z,38.10
2022-08-05T14:01:59.267Z,37.89
2022-08-05T14:04:51.730Z,38.05
2022-08-05T14:07:25.728Z,38.10
2022-08-05T14:10:28.434Z,38.14
2022-08-05T14:12:57.174Z,38.34
2022-08-05T14:16:04.768Z,38.52
2022-08-05T14:18:15.106Z,38.44
2022-08-05T14:20:48.449Z,38.31
2022-08-05T14:23:19.272Z,38.32
2022-08-05T14:25:58.500Z,38.28
2022-08-05T14:28:28.785Z,38.20
2022-08-05T14:30:58.402Z,37.65
2022-08-05T14:33:27.122Z,37.22
2022-08-05T14:36:02.203Z,37.04
2022-08-05T14:38:34.054Z,37.05
2022-08-05T14:41:07.667Z,37.14
2022-08-05T14:43:57.753Z,36.94
2022-08-05T14:46:29.768Z,37.46
2022-08-05T14:49:06.918Z,37.29
2022-08-05T14:51:39.048Z,37.42
2022-08-05T14:54:28.367Z,37.55
2022-08-05T14:56:59.215Z,37.99
2022-08-05T14:59:29.695Z,37.78
2022-08-05T15:02:15.018Z,37.75
2022-08-05T15:04:49.973Z,37.67
2022-08-05T15:08:08.523Z,37.90
2022-08-05T15:10:11.667Z,37.57
2022-08-05T15:12:59.744Z,36.98
2022-08-05T15:15:55.899Z,35.76
2022-08-05T15:18:17.237Z,36.34
2022-08-05T15:20:47.048Z,36.43
2022-08-05T15:23:18.259Z,36.79
2022-08-05T15:25:52.235Z,36.67
2022-08-05T15:28:27.598Z,36.53
2022-08-05T15:30:56.219Z,36.84
2022-08-05T15:34:18.506Z,37.01
2022-08-05T15:36:17.412Z,37.02
2022-08-05T15:40:41.296Z,36.64
2022-08-05T15:41:55.973Z,36.60
2022-08-05T15:44:30.971Z,36.67
2022-08-05T15:47:03.598Z,36.40
2022-08-05T15:49:48.265Z,36.51
2022-08-05T15:52:52.212Z,36.40
2022-08-05T15:55:10.420Z,36.15
2022-08-05T15:57:43.889Z,36.20
2022-08-05T16:00:13.294Z,36.19
2022-08-05T16:02:46.869Z,36.09
2022-08-05T16:05:14.810Z,36.12
2022-08-05T16:07:46.649Z,35.88
2022-08-05T16:10:16.953Z,35.58
2022-08-05T16:12:51.586Z,35.53
2022-08-05T16:15:21.747Z,35.35
2022-08-05T16:17:57.826Z,35.39
2022-08-05T16:20:27.999Z,35.33
2022-08-05T16:22:55.961Z,35.21
2022-08-05T16:25:32.323Z,35.06
2022-08-05T16:28:06.010Z,34.94
2022-08-05T16:30:36.139Z,34.66
2022-08-05T16:33:04.382Z,34.57
2022-08-05T16:35:33.467Z,34.60
2022-08-05T16:38:24.606Z,34.49
2022-08-05T16:40:59.507Z,34.49
2022-08-05T16:43:34.472Z,34.38
2022-08-05T16:46:12.869Z,34.20
2022-08-05T16:48:52.752Z,34.25
2022-08-05T16:51:20.714Z,34.12
2022-08-05T16:54:04.896Z,33.95
2022-08-05T16:56:41.707Z,33.70
2022-08-05T16:59:14.683Z,33.61
2022-08-05T17:01:53.937Z,33.55
2022-08-05T17:04:26.607Z,33.55
2022-08-05T17:06:55.689Z,33.58
2022-08-05T17:09:29.609Z,33.54
2022-08-05T17:11:59.703Z,33.43
2022-08-05T17:14:37.748Z,33.44
2022-08-05T17:17:15.047Z,33.19
2022-08-05T17:19:46.980Z,33.18
2022-08-05T17:22:25.290Z,32.81
2022-08-05T17:24:58.794Z,32.82
2022-08-05T17:27:33.654Z,32.84
2022-08-05T17:30:07.048Z,32.85
2022-08-05T17:32:46.342Z,32.71
2022-08-05T17:35:15.569Z,32.63
2022-08-05T17:37:48.652Z,32.50
2022-08-05T17:40:18.652Z,32.47
2022-08-05T17:42:53.261Z,32.34
2022-08-05T17:45:23.058Z,32.19
2022-08-05T17:47:55.085Z,32.02
2022-08-05T17:50:30.466Z,31.84
2022-08-05T17:53:04.763Z,31.72
2022-08-05T17:55:38.389Z,31.57
2022-08-05T17:58:09.779Z,31.40
2022-08-05T18:00:45.083Z,31.22
2022-08-05T18:06:11.986Z,30.90
2022-08-05T18:08:45.886Z,30.73
2022-08-05T18:11:24.472Z,30.58
2022-08-05T18:14:20.394Z,30.52
2022-08-05T18:16:51.933Z,30.39
2022-08-05T18:19:22.986Z,30.27
2022-08-05T18:22:07.136Z,30.03
2022-08-05T18:24:39.519Z,30.00
2022-08-05T18:27:12.357Z,29.97
2022-08-05T18:29:48.211Z,29.87
2022-08-05T18:32:21.939Z,29.78
2022-08-05T18:34:56.551Z,29.74
2022-08-05T18:37:34.151Z,29.74
2022-08-05T18:40:34.259Z,29.71
2022-08-05T18:42:57.926Z,29.64
2022-08-05T18:45:25.599Z,29.56
2022-08-05T18:48:11.464Z,29.40
2022-08-05T18:52:02.776Z,29.36
2022-08-05T18:53:58.450Z,29.17
2022-08-05T18:56:29.344Z,29.03
2022-08-05T18:59:01.120Z,28.97
2022-08-05T19:01:33.244Z,28.76
2022-08-05T19:04:23.873Z,28.71
2022-08-05T19:06:53.735Z,28.69
2022-08-05T19:09:22.989Z,28.61
2022-08-05T19:12:00.088Z,28.53
2022-08-05T19:14:37.728Z,28.47
2022-08-05T19:17:18.028Z,28.36
2022-08-05T19:19:48.678Z,28.32
2022-08-05T19:22:17.203Z,28.15
2022-08-05T19:24:54.474Z,28.10
2022-08-05T19:27:30.520Z,28.04
2022-08-05T19:30:00.463Z,28.14
2022-08-05T19:32:30.477Z,28.21
2022-08-05T19:34:59.062Z,28.12
2022-08-05T19:38:04.504Z,28.10
2022-08-05T19:40:29.803Z,28.08
2022-08-05T19:43:07.317Z,27.99
2022-08-05T19:45:36.822Z,27.95
2022-08-05T19:48:14.498Z,27.98
2022-08-05T19:50:45.142Z,27.88
2022-08-05T19:53:15.305Z,27.77
2022-08-05T19:56:14.630Z,27.84
2022-08-05T19:58:53.836Z,27.80
2022-08-05T20:01:28.392Z,27.76
2022-08-05T20:03:57.982Z,27.58
2022-08-05T20:06:29.105Z,27.52
2022-08-05T20:09:06.158Z,27.49
2022-08-05T20:11:41.895Z,27.43
2022-08-05T20:14:23.478Z,27.46
2022-08-05T20:16:58.592Z,27.41
2022-08-05T20:19:26.487Z,27.38
2022-08-05T20:22:03.736Z,27.43
2022-08-05T20:24:34.680Z,27.42
2022-08-05T20:27:11.608Z,27.33
2022-08-05T20:29:42.379Z,27.10
2022-08-05T20:32:27.822Z,27.01
2022-08-05T20:34:58.738Z,26.90
2022-08-05T20:38:05.636Z,26.87
2022-08-05T20:40:19.334Z,26.84
2022-08-05T20:42:50.218Z,26.91
2022-08-05T20:45:21.066Z,26.94
2022-08-05T20:47:57.092Z,26.94
2022-08-05T20:50:27.491Z,26.93
2022-08-05T20:53:03.251Z,26.97
2022-08-05T20:55:54.996Z,26.88
2022-08-05T20:58:22.219Z,26.81
2022-08-05T21:00:59.037Z,26.80
2022-08-05T21:03:29.189Z,26.85
2022-08-05T21:06:02.584Z,26.85
2022-08-05T21:08:42.504Z,26.80
2022-08-05T21:11:15.170Z,26.72
2022-08-05T21:14:00.572Z,26.73
2022-08-05T21:16:30.963Z,26.60
2022-08-05T21:18:59.871Z,26.69
2022-08-05T21:21:39.515Z,26.68
2022-08-05T21:24:15.439Z,26.61
2022-08-05T21:26:53.156Z,26.53
2022-08-05T21:29:23.416Z,26.39
2022-08-05T21:31:55.808Z,26.30
2022-08-05T21:34:23.598Z,26.36
2022-08-05T21:36:53.219Z,26.38
2022-08-05T21:39:26.742Z,26.42
2022-08-05T21:41:58.917Z,26.36
2022-08-05T21:44:30.979Z,26.27
2022-08-05T21:46:59.974Z,26.12
2022-08-05T21:49:58.545Z,26.07
2022-08-05T21:52:27.060Z,26.08
2022-08-05T21:55:06.193Z,26.06
2022-08-05T21:57:36.694Z,26.08
2022-08-05T22:00:12.653Z,26.10
2022-08-05T22:02:42.593Z,26.18
2022-08-05T22:05:13.426Z,26.10
2022-08-05T22:07:59.273Z,26.04
2022-08-05T22:10:31.702Z,26.07
2022-08-05T22:13:58.794Z,26.08
2022-08-05T22:16:00.957Z,26.12
2022-08-05T22:18:32.636Z,25.88
2022-08-05T22:21:04.273Z,25.86
2022-08-05T22:24:00.794Z,25.87
2022-08-05T22:26:49.875Z,25.75
2022-08-05T22:29:19.044Z,25.77
2022-08-05T22:31:55.323Z,25.77
2022-08-05T22:34:28.343Z,25.72
2022-08-05T22:36:58.394Z,25.73
2022-08-05T22:39:33.646Z,25.78
2022-08-05T22:42:09.546Z,25.87
2022-08-05T22:44:48.568Z,25.70
2022-08-05T22:47:29.148Z,25.62
2022-08-05T22:50:22.792Z,25.67
2022-08-05T22:52:51.324Z,25.81
2022-08-05T22:55:21.577Z,25.86
2022-08-05T22:57:51.987Z,25.87
2022-08-05T23:00:22.437Z,25.86
2022-08-05T23:02:53.568Z,26.03
2022-08-05T23:05:23.273Z,26.07
2022-08-05T23:07:51.904Z,26.16
2022-08-05T23:10:23.926Z,26.15
2022-08-05T23:12:54.917Z,25.99
2022-08-05T23:15:35.135Z,25.71
2022-08-05T23:18:06.128Z,25.65
2022-08-05T23:20:40.240Z,25.53
2022-08-05T23:23:15.565Z,25.74
2022-08-05T23:25:52.099Z,25.53
2022-08-05T23:28:29.016Z,25.31
2022-08-05T23:31:15.652Z,25.37
2022-08-05T23:34:03.181Z,25.31
2022-08-05T23:36:38.679Z,25.15
2022-08-05T23:39:09.811Z,25.17
2022-08-05T23:41:48.626Z,25.32
2022-08-05T23:44:16.946Z,25.38
2022-08-05T23:46:47.403Z,25.37
2022-08-05T23:49:15.938Z,25.39
2022-08-05T23:52:25.320Z,25.37
2022-08-05T23:54:54.324Z,25.29
2022-08-05T23:57:22.120Z,25.25
